Big Bear Station Historical Data
Daily Summary for January 12, 2017 Units:  English    Metric   Both
Next Day »
Daily Weekly Monthly Yearly Custom
  High: Low: Average:
Temperature: 34.0 °F 27.9 °F 30.6 °F
Dew Point: 31.7 °F 26.7 °F 28.9 °F
Humidity: 97% 89% 94%
Wind Speed: 7.3mph 0.0mph 0.5mph
Wind Gust: -999.0mph - -
Wind- - WSW
Pressure: 23.34 in 23.26 in -
Precipitation: 0.11 in    
Historical Graphs
 
 
Tabular Data for January 12, 2017
Time Temperature Dew Point Pressure Wind Wind Speed Wind Gust Humidity Rainfall Rate (Hourly)
00:03 29.3 °F 27.3 °F 23.34 in East 1.7 mph -999.0 mph 92% 0 in
00:18 29.5 °F 26.9 °F 23.33 in SW 2.7 mph -999.0 mph 90% 0 in
00:33 29.5 °F 26.7 °F 23.33 in SSE 1.1 mph -999.0 mph 89% 0 in
00:50 29.7 °F 26.9 °F 23.33 in NNW 5.3 mph -999.0 mph 89% 0 in
01:07 29.8 °F 27.0 °F 23.33 in Calm   -999.0 mph 89% 0 in
01:22 30.0 °F 27.4 °F 23.33 in South 2.7 mph -999.0 mph 90% 0 in
01:39 30.2 °F 27.6 °F 23.33 in Calm   -999.0 mph 90% 0 in
01:54 30.2 °F 27.4 °F 23.33 in West 1.7 mph -999.0 mph 89% 0 in
02:09 30.0 °F 28.0 °F 23.34 in Calm   -999.0 mph 92% 0 in
02:24 29.8 °F 28.0 °F 23.33 in Calm   -999.0 mph 93% 0 in
02:40 29.7 °F 28.2 °F 23.33 in Calm   -999.0 mph 94% 0 in
02:55 29.7 °F 28.4 °F 23.33 in Calm   -999.0 mph 95% 0 in
03:10 29.8 °F 28.5 °F 23.33 in South 1.7 mph -999.0 mph 95% 0 in
03:25 30.0 °F 28.7 °F 23.31 in NW 1.7 mph -999.0 mph 95% 0 in
03:40 30.2 °F 29.2 °F 23.31 in NNW 1.1 mph -999.0 mph 96% 0 in
03:56 30.2 °F 29.2 °F 23.30 in NNW 1.1 mph -999.0 mph 96% 0 in
04:11 30.2 °F 29.5 °F 23.30 in Calm   -999.0 mph 97% 0 in
04:26 30.2 °F 29.5 °F 23.28 in Calm   -999.0 mph 97% 0 in
04:44 31.3 °F 29.5 °F 23.28 in South 7.3 mph -999.0 mph 93% 0 in
08:22 31.6 °F 30.3 °F 23.31 in WNW 2.7 mph -999.0 mph 95% 0 in
08:37 31.6 °F 30.1 °F 23.31 in SSE 2.2 mph -999.0 mph 94% 0 in
08:52 31.8 °F 30.3 °F 23.31 in NNW 1.1 mph -999.0 mph 94% 0 in
09:07 32.0 °F 30.5 °F 23.32 in NNW 1.1 mph -999.0 mph 94% 0 in
09:22 32.5 °F 30.7 °F 23.32 in Calm   -999.0 mph 93% 0 in
09:38 32.5 °F 30.7 °F 23.32 in Calm   -999.0 mph 93% 0 in
09:53 33.1 °F 31.0 °F 23.32 in Calm   -999.0 mph 92% 0 in
10:08 33.6 °F 31.5 °F 23.32 in Calm   -999.0 mph 92% 0 in
10:23 34.0 °F 31.7 °F 23.32 in Calm   -999.0 mph 91% 0 in
10:38 33.3 °F 30.7 °F 23.32 in Calm   -999.0 mph 90% 0 in
10:54 32.9 °F 30.6 °F 23.32 in Calm   -999.0 mph 91% 0 in
11:09 32.9 °F 30.6 °F 23.31 in Calm   -999.0 mph 91% 0 in
11:24 32.5 °F 30.2 °F 23.30 in Calm   -999.0 mph 91% 0 in
11:39 33.4 °F 30.8 °F 23.29 in Calm   -999.0 mph 90% 0 in
11:54 32.2 °F 29.9 °F 23.28 in Calm   -999.0 mph 91% 0 in
12:10 33.3 °F 31.0 °F 23.28 in Calm   -999.0 mph 91% 0 in
12:25 32.7 °F 30.1 °F 23.28 in Calm   -999.0 mph 90% 0 in
12:40 33.1 °F 30.5 °F 23.28 in Calm   -999.0 mph 90% 0 in
12:58 33.8 °F 31.2 °F 23.27 in Calm   -999.0 mph 90% 0 in
13:13 33.4 °F 30.8 °F 23.26 in Calm   -999.0 mph 90% 0 in
13:28 33.3 °F 30.7 °F 23.26 in Calm   -999.0 mph 90% 0 in
13:43 33.3 °F 30.7 °F 23.26 in Calm   -999.0 mph 90% 0 in
13:59 32.9 °F 30.0 °F 23.26 in Calm   -999.0 mph 89% 0 in
14:14 33.1 °F 30.5 °F 23.26 in Calm   -999.0 mph 90% 0 in
14:29 32.2 °F 29.9 °F 23.26 in Calm   -999.0 mph 91% 0 in
14:44 32.0 °F 29.7 °F 23.27 in Calm   -999.0 mph 91% 0 in
15:00 31.6 °F 29.8 °F 23.27 in Calm   -999.0 mph 93% 0 in
15:15 31.3 °F 29.8 °F 23.28 in Calm   -999.0 mph 94% 0 in
15:30 31.3 °F 29.8 °F 23.28 in Calm   -999.0 mph 94% 0 in
15:46 31.3 °F 30.0 °F 23.28 in Calm   -999.0 mph 95% 0 in
16:01 30.4 °F 29.1 °F 23.29 in Calm   -999.0 mph 95% 0 in
16:16 30.4 °F 28.9 °F 23.29 in Calm   -999.0 mph 94% 0 in
16:31 30.2 °F 28.9 °F 23.28 in Calm   -999.0 mph 95% 0 in
16:46 30.2 °F 28.9 °F 23.28 in Calm   -999.0 mph 95% 0 in
17:02 29.8 °F 28.5 °F 23.29 in Calm   -999.0 mph 95% 0 in
17:17 29.7 °F 28.4 °F 23.28 in Calm   -999.0 mph 95% 0 in
17:33 29.7 °F 28.4 °F 23.29 in Calm   -999.0 mph 95% 0 in
17:49 29.5 °F 28.2 °F 23.29 in Calm   -999.0 mph 95% 0 in
18:04 29.3 °F 28.0 °F 23.29 in Calm   -999.0 mph 95% 0 in
18:19 29.3 °F 28.3 °F 23.29 in Calm   -999.0 mph 96% 0 in
18:35 29.3 °F 28.3 °F 23.29 in Calm   -999.0 mph 96% 0 in
18:50 29.3 °F 28.3 °F 23.29 in Calm   -999.0 mph 96% 0 in
19:05 29.3 °F 28.3 °F 23.29 in Calm   -999.0 mph 96% 0 in
19:20 29.3 °F 28.3 °F 23.30 in Calm   -999.0 mph 96% 0 in
19:36 29.3 °F 28.3 °F 23.30 in Calm   -999.0 mph 96% 0 in
19:51 29.3 °F 28.3 °F 23.30 in Calm   -999.0 mph 96% 0 in
20:06 29.3 °F 28.3 °F 23.31 in Calm   -999.0 mph 96% 0 in
20:21 29.3 °F 28.6 °F 23.31 in Calm   -999.0 mph 97% 0 in
20:36 28.9 °F 28.2 °F 23.30 in SSE 1.7 mph -999.0 mph 97% 0 in
20:52 28.2 °F 27.2 °F 23.30 in Calm   -999.0 mph 96% 0 in
21:07 28.2 °F 27.2 °F 23.30 in Calm   -999.0 mph 96% 0 in
21:22 28.6 °F 27.6 °F 23.30 in Calm   -999.0 mph 96% 0 in
21:37 28.4 °F 27.4 °F 23.30 in Calm   -999.0 mph 96% 0 in
21:52 28.0 °F 27.0 °F 23.30 in Calm   -999.0 mph 96% 0 in
22:08 27.9 °F 26.9 °F 23.30 in Calm   -999.0 mph 96% 0 in
22:23 28.8 °F 27.5 °F 23.30 in Calm   -999.0 mph 95% 0 in
22:38 28.6 °F 27.4 °F 23.30 in Calm   -999.0 mph 95% 0 in
22:53 28.4 °F 27.2 °F 23.30 in Calm   -999.0 mph 95% 0 in
23:08 28.4 °F 27.2 °F 23.31 in Calm   -999.0 mph 95% 0 in
23:24 28.4 °F 27.2 °F 23.30 in Calm   -999.0 mph 95% 0 in
23:39 28.0 °F 27.0 °F 23.30 in Calm   -999.0 mph 96% 0 in
23:54 28.0 °F 27.0 °F 23.30 in Calm   -999.0 mph 96% 0 in
Big Bear CA Weather